.
WxDataArchive / Data Records for 2006-07-13
2006-07-12 July 2006 2006-07-14

Data Records for Thursday, 13 July 2006

Time	Temp	Chill	HIndex	Humid	Dewpt	 Wind 	HiWind	WindDir	Rain 	Barom 
-----	----	-----	------	-----	-----	------	------	-------	-----	----- 
00:00	73.3	73.3	73.3	92	70.8	0	0	---	0.00	29.923 
00:05	73.3	73.3	73.3	92	70.8	0	0	---	0.00	29.923 
00:10	73.3	73.3	73.3	92	70.8	0	0	---	0.00	29.923 
00:15	73.3	73.3	73.3	93	71.1	0	0	---	0.00	29.921 
00:20	73.3	73.3	73.3	93	71.1	0	0	---	0.00	29.921 
00:25	73.3	73.3	73.3	93	71.1	0	0	---	0.00	29.921 
00:30	73.3	73.3	73.3	93	71.1	0	0	---	0.00	29.922 
00:35	73.3	73.3	73.3	93	71.1	0	0	---	0.00	29.922 
00:40	73.2	73.2	73.2	93	71.0	0	0	---	0.00	29.922 
00:45	73.2	73.2	73.2	93	71.0	0	0	---	0.00	29.923 
00:50	73.2	73.2	73.2	93	71.0	0	0	---	0.00	29.923 
00:55	73.2	73.2	73.2	93	71.0	0	0	---	0.00	29.923 
01:00	73.2	73.2	73.2	93	71.0	0	0	---	0.00	29.926 
01:05	73.2	73.2	73.2	93	71.0	0	0	---	0.00	29.926 
01:10	73.0	73.0	73.0	93	70.8	0	0	---	0.00	29.926 
01:15	73.0	73.0	73.0	94	71.2	0	0	---	0.00	29.935 
01:20	72.8	72.8	72.8	94	71.0	0	0	---	0.00	29.935 
01:25	72.8	72.8	72.8	94	71.0	0	0	---	0.00	29.935 
01:30	72.7	72.7	72.7	94	70.9	0	0	---	0.00	29.933 
01:35	72.7	72.7	72.7	94	70.9	0	0	---	0.00	29.933 
01:40	72.5	72.5	72.5	94	70.7	0	0	---	0.00	29.933 
01:45	72.5	72.5	72.5	94	70.7	0	0	---	0.00	29.931 
01:50	72.5	72.5	72.5	94	70.7	0	0	---	0.00	29.931 
01:55	72.5	72.5	72.5	94	70.7	0	0	---	0.00	29.931 
02:00	72.7	72.7	72.7	94	70.9	0	0	---	0.00	29.933 
02:05	72.7	72.7	72.7	94	70.9	0	0	---	0.00	29.933 
02:10	72.7	72.7	72.7	94	70.9	0	0	---	0.00	29.933 
02:15	72.7	72.7	72.7	94	70.9	0	0	---	0.00	29.926 
02:20	72.7	72.7	72.7	94	70.9	0	0	---	0.00	29.926 
02:25	72.8	72.8	72.8	95	71.3	0	0	---	0.00	29.926 
02:30	72.8	72.8	72.8	95	71.3	0	0	---	0.00	29.923 
02:35	72.8	72.8	72.8	95	71.3	0	0	---	0.00	29.923 
02:40	72.8	72.8	72.8	95	71.3	0	0	---	0.00	29.923 
02:45	72.8	72.8	72.8	95	71.3	0	0	---	0.00	29.920 
02:50	72.8	72.8	72.8	95	71.3	0	0	---	0.00	29.920 
02:55	73.0	73.0	73.0	95	71.5	0	0	---	0.00	29.920 
03:00	73.0	73.0	73.0	95	71.5	0	0	---	0.00	29.917 
03:05	73.2	73.2	73.2	95	71.7	0	0	---	0.00	29.917 
03:10	73.2	73.2	73.2	95	71.7	0	0	---	0.00	29.917 
03:15	73.2	73.2	73.2	95	71.7	0	1	180	0.00	29.918 
03:20	73.2	73.2	73.2	95	71.7	0	3	90	0.00	29.918 
03:25	73.0	73.0	73.0	95	71.5	1	3	90	0.00	29.918 
03:30	73.0	73.0	73.0	95	71.5	0	0	---	0.00	29.909 
03:35	73.0	73.0	73.0	95	71.5	0	2	90	0.00	29.909 
03:40	72.7	72.7	72.7	95	71.2	0	1	90	0.00	29.909 
03:45	72.3	72.3	72.3	95	70.8	0	1	90	0.00	29.905 
03:50	72.1	72.1	72.1	95	70.6	0	1	90	0.00	29.905 
03:55	71.8	71.8	71.8	95	70.3	0	2	90	0.00	29.905 
04:00	71.8	71.8	71.8	95	70.3	0	1	90	0.00	29.910 
04:05	71.6	71.6	71.6	94	69.8	0	0	---	0.00	29.910 
04:10	71.5	71.5	71.5	94	69.7	0	0	---	0.00	29.910 
04:15	71.3	71.3	71.3	94	69.5	0	0	---	0.00	29.917 
04:20	71.1	71.1	71.1	94	69.3	0	0	---	0.00	29.917 
04:25	70.9	70.9	70.9	94	69.1	0	0	---	0.00	29.917 
04:30	70.8	70.8	70.8	94	69.0	0	0	---	0.00	29.921 
04:35	70.8	70.8	70.8	94	69.0	0	0	---	0.00	29.921 
04:40	70.6	70.6	70.6	94	68.8	0	0	---	0.00	29.921 
04:45	70.6	70.6	70.6	94	68.8	0	0	---	0.00	29.925 
04:50	70.4	70.4	70.4	94	68.6	0	0	---	0.00	29.925 
04:55	70.3	70.3	70.3	94	68.5	0	0	---	0.00	29.925 
05:00	70.1	70.1	70.1	94	68.3	0	0	---	0.00	29.925 
05:05	69.9	69.9	69.9	94	68.1	0	0	---	0.00	29.925 
05:10	69.9	69.9	69.9	94	68.1	0	0	---	0.00	29.925 
05:15	69.9	69.9	69.9	94	68.1	0	0	---	0.00	29.931 
05:20	69.9	69.9	69.9	95	68.4	0	0	---	0.00	29.931 
05:25	69.9	69.9	69.9	95	68.4	0	1	90	0.00	29.931 
05:30	69.9	69.9	69.9	95	68.4	0	1	90	0.00	29.932 
05:35	69.9	69.9	69.9	95	68.4	0	1	90	0.00	29.932 
05:40	69.9	69.9	69.9	95	68.4	0	1	90	0.00	29.932 
05:45	69.9	69.9	69.9	95	68.4	0	1	90	0.00	29.935 
05:50	69.9	69.9	69.9	95	68.4	0	0	---	0.00	29.935 
05:55	69.9	69.9	69.9	95	68.4	0	0	---	0.00	29.935 
06:00	69.9	69.9	69.9	95	68.4	0	1	90	0.00	29.936 
06:05	69.9	69.9	69.9	95	68.4	1	3	90	0.00	29.936 
06:10	69.8	69.8	69.8	94	68.0	0	2	90	0.00	29.936 
06:15	69.8	69.8	69.8	94	68.0	1	3	68	0.00	29.935 
06:20	69.8	69.8	69.8	94	68.0	1	3	68	0.00	29.935 
06:25	69.8	69.8	69.8	94	68.0	0	3	68	0.00	29.935 
06:30	69.8	69.8	69.8	94	68.0	1	4	68	0.00	29.939 
06:35	69.8	69.8	69.8	95	68.3	1	3	90	0.00	29.939 
06:40	69.8	69.8	69.8	95	68.3	1	4	68	0.00	29.939 
06:45	69.8	69.8	69.8	95	68.3	1	3	90	0.00	29.939 
06:50	69.8	69.8	69.8	95	68.3	0	1	90	0.00	29.939 
06:55	69.8	69.8	69.8	95	68.3	1	2	90	0.00	29.939 
07:00	69.8	69.8	69.8	95	68.3	0	1	90	0.00	29.940 
07:05	69.8	69.8	69.8	95	68.3	0	2	90	0.00	29.940 
07:10	69.8	69.8	69.8	95	68.3	1	2	90	0.00	29.940 
07:15	69.9	69.9	69.9	95	68.4	1	3	90	0.00	29.941 
07:20	69.9	69.9	69.9	95	68.4	1	3	90	0.00	29.941 
07:25	69.9	69.9	69.9	95	68.4	1	4	90	0.00	29.941 
07:30	70.1	70.1	70.1	94	68.3	0	3	90	0.00	29.953 
07:35	70.4	70.4	70.4	94	68.6	1	2	90	0.00	29.953 
07:40	70.6	70.6	70.6	93	68.5	1	3	90	0.00	29.953 
07:45	70.9	70.9	70.9	92	68.5	1	2	90	0.00	29.952 
07:50	71.3	71.3	71.3	91	68.5	1	5	90	0.00	29.952 
07:55	71.6	71.6	71.6	91	68.8	1	5	68	0.00	29.952 
08:00	72.1	72.1	72.1	90	69.0	1	3	68	0.00	29.955 
08:05	72.3	72.3	72.3	88	68.5	2	5	90	0.00	29.955 
08:10	72.7	72.7	72.7	88	68.9	2	4	90	0.00	29.955 
08:15	73.0	73.0	73.0	87	68.9	2	3	90	0.00	29.958 
08:20	73.3	73.3	73.3	86	68.8	1	4	90	0.00	29.958 
08:25	73.7	73.7	73.7	85	68.9	2	4	90	0.00	29.958 
08:30	74.0	74.0	74.0	84	68.8	2	4	90	0.00	29.960 
08:35	74.2	74.2	74.2	83	68.7	2	6	90	0.00	29.960 
08:40	74.0	74.0	74.0	83	68.5	3	5	90	0.00	29.960 
08:45	74.0	74.0	74.0	83	68.5	2	4	90	0.00	29.965 
08:50	74.0	74.0	74.0	84	68.8	2	5	90	0.00	29.965 
08:55	74.6	74.6	74.6	84	69.4	1	3	90	0.00	29.965 
09:00	74.6	74.6	74.6	83	69.1	2	4	90	0.00	29.966 
09:05	74.4	74.4	74.4	84	69.2	2	4	90	0.00	29.966 
09:10	74.6	74.6	74.6	84	69.4	2	7	90	0.00	29.966 
09:15	74.6	74.6	74.6	84	69.4	2	5	90	0.00	29.967 
09:20	74.9	74.9	74.9	81	68.7	3	9	90	0.00	29.967 
09:25	75.3	75.3	75.9	81	69.1	3	9	90	0.00	29.967 
09:30	75.3	75.3	75.9	81	69.1	3	7	90	0.00	29.969 
09:35	75.1	75.1	75.6	81	68.9	4	7	90	0.00	29.969 
09:40	75.1	75.1	75.7	80	68.5	3	6	90	0.00	29.969 
09:45	74.9	74.9	74.9	80	68.3	4	6	90	0.00	29.978 
09:50	75.3	75.3	75.9	81	69.1	3	7	90	0.00	29.978 
09:55	75.6	75.6	76.4	80	69.0	3	7	90	0.00	29.978 
10:00	75.8	75.8	76.6	81	69.5	2	6	90	0.00	29.975 
10:05	75.8	75.8	76.7	80	69.2	3	7	90	0.00	29.975 
10:10	75.4	75.4	76.0	81	69.1	4	7	90	0.00	29.975 
10:15	75.1	75.1	75.7	80	68.5	3	10	112	0.00	29.975 
10:20	75.3	75.3	76.0	80	68.7	2	5	90	0.00	29.975 
10:25	75.6	75.6	76.6	78	68.2	3	8	90	0.00	29.975 
10:30	75.6	75.6	76.6	78	68.2	3	7	90	0.00	29.975 
10:35	75.6	75.6	76.5	79	68.6	3	9	90	0.00	29.975 
10:40	75.8	75.8	76.8	79	68.8	2	6	90	0.00	29.975 
10:45	76.3	76.3	77.6	78	68.9	3	7	90	0.00	29.970 
10:50	76.5	76.5	77.9	77	68.7	4	8	90	0.00	29.970 
10:55	76.7	76.7	78.2	78	69.3	3	6	112	0.00	29.970 
11:00	76.5	76.5	77.9	77	68.7	3	9	90	0.00	29.970 
11:05	76.3	76.3	77.6	78	68.9	3	5	90	0.00	29.970 
11:10	76.1	76.1	77.3	78	68.7	3	6	90	0.00	29.970 
11:15	76.1	76.1	77.3	78	68.7	3	7	90	0.00	29.972 
11:20	76.5	76.5	77.9	78	69.1	2	5	90	0.00	29.972 
11:25	76.8	76.8	78.4	77	69.0	2	5	45	0.00	29.972 
11:30	76.7	76.7	78.3	75	68.2	3	9	90	0.00	29.971 
11:35	76.8	76.8	78.4	77	69.0	3	7	112	0.00	29.971 
11:40	77.6	77.6	79.6	77	69.8	3	6	90	0.00	29.971 
11:45	78.3	78.3	80.6	74	69.3	3	7	90	0.00	29.970 
11:50	78.1	78.1	80.3	74	69.1	3	9	90	0.00	29.970 
11:55	78.1	78.1	80.3	73	68.7	3	6	90	0.00	29.970 
12:00	78.5	78.5	80.9	73	69.1	2	5	112	0.00	29.966 
12:05	78.8	78.8	81.2	71	68.6	2	5	90	0.00	29.966 
12:10	78.6	78.6	81.1	75	70.0	3	6	90	0.00	29.966 
12:15	78.6	78.6	81.0	72	68.8	2	7	90	0.00	29.967 
12:20	78.8	78.8	81.3	73	69.4	2	5	90	0.00	29.967 
12:25	79.0	79.0	81.6	72	69.2	2	5	90	0.00	29.967 
12:30	79.0	79.0	81.6	72	69.2	2	7	112	0.00	29.969 
12:35	78.8	78.8	81.5	75	70.2	2	4	90	0.00	29.969 
12:40	78.5	78.5	80.9	74	69.5	2	4	90	0.00	29.969 
12:45	78.5	78.5	80.9	74	69.5	2	5	90	0.00	29.969 
12:50	78.3	78.3	80.6	74	69.3	2	6	90	0.00	29.969 
12:55	78.5	78.5	80.9	73	69.1	2	5	90	0.00	29.969 
13:00	78.3	78.3	80.6	75	69.7	2	5	90	0.00	29.970 
13:05	78.5	78.5	80.9	73	69.1	1	4	90	0.00	29.970 
13:10	78.3	78.3	80.6	73	68.9	2	5	90	0.00	29.970 
13:15	78.3	78.3	80.6	74	69.3	1	4	90	0.00	29.971 
13:20	78.5	78.5	80.8	72	68.7	2	4	68	0.00	29.971 
13:25	78.6	78.6	81.0	73	69.2	1	5	68	0.00	29.971 
13:30	78.8	78.8	81.3	73	69.4	2	4	90	0.00	29.968 
13:35	79.0	79.0	81.4	70	68.4	2	6	90	0.00	29.968 
13:40	79.0	79.0	81.5	71	68.8	2	5	112	0.00	29.968 
13:45	79.9	79.9	83.1	73	70.4	1	6	68	0.00	29.968 
13:50	81.1	81.1	84.5	68	69.5	2	4	112	0.00	29.968 
13:55	81.6	81.6	85.3	68	70.0	2	5	68	0.00	29.968 
14:00	81.6	81.6	84.9	66	69.1	2	5	68	0.00	29.965 
14:05	81.2	81.2	84.1	65	68.3	3	7	90	0.00	29.965 
14:10	81.1	81.1	84.3	67	69.1	3	9	90	0.00	29.965 
14:15	80.9	80.9	83.8	66	68.4	3	7	90	0.00	29.960 
14:20	80.1	80.1	83.0	69	69.0	2	6	90	0.00	29.960 
14:25	80.1	80.1	82.9	68	68.6	2	5	68	0.00	29.960 
14:30	80.1	80.1	82.7	67	68.1	2	5	112	0.00	29.959 
14:35	80.5	80.5	83.8	70	69.8	1	4	90	0.00	29.959 
14:40	80.9	80.9	84.0	67	68.9	1	3	90	0.00	29.959 
14:45	80.5	80.5	83.3	67	68.5	3	9	90	0.00	29.953 
14:50	80.3	80.3	83.0	67	68.3	1	4	90	0.00	29.953 
14:55	80.5	80.5	83.3	67	68.5	2	5	90	0.00	29.953 
15:00	81.6	81.6	84.7	65	68.7	2	6	90	0.00	29.949 
15:05	82.2	82.2	86.1	67	70.1	3	5	112	0.00	29.949 
15:10	82.2	82.2	85.7	65	69.2	3	6	90	0.00	29.949 
15:15	82.0	82.0	85.2	64	68.6	1	6	112	0.00	29.948 
15:20	81.8	81.8	84.9	64	68.4	2	6	112	0.00	29.948 
15:25	82.2	82.2	85.5	64	68.8	2	6	90	0.00	29.948 
15:30	82.6	82.6	86.4	65	69.6	2	5	90	0.00	29.946 
15:35	83.0	83.0	86.4	62	68.6	2	6	90	0.00	29.946 
15:40	83.4	83.4	87.6	64	69.9	2	5	90	0.00	29.946 
15:45	83.8	83.8	88.0	63	69.8	2	5	90	0.00	29.943 
15:50	83.4	83.4	86.8	61	68.5	2	4	90	0.00	29.943 
15:55	83.2	83.2	86.9	63	69.3	1	5	90	0.00	29.943 
16:00	82.8	82.8	86.1	62	68.4	3	6	90	0.00	29.939 
16:05	83.2	83.2	86.5	61	68.3	1	4	90	0.00	29.939 
16:10	83.4	83.4	86.8	61	68.5	2	4	90	0.00	29.939 
16:15	83.8	83.8	88.0	63	69.8	1	3	68	0.00	29.935 
16:20	84.3	84.3	89.5	65	71.2	1	3	90	0.00	29.935 
16:25	84.5	84.5	87.8	58	68.1	1	4	112	0.00	29.935 
16:30	84.3	84.3	87.8	59	68.4	1	3	68	0.00	29.933 
16:35	83.8	83.8	86.9	59	67.9	2	5	90	0.00	29.933 
16:40	83.8	83.8	87.2	60	68.4	1	2	90	0.00	29.933 
16:45	84.0	84.0	87.5	60	68.6	1	3	90	0.00	29.932 
16:50	84.1	84.1	88.2	62	69.6	1	2	90	0.00	29.932 
16:55	84.1	84.1	87.4	59	68.2	2	5	90	0.00	29.932 
17:00	84.1	84.1	87.4	59	68.2	1	5	112	0.00	29.929 
17:05	84.1	84.1	87.2	58	67.7	1	4	90	0.00	29.929 
17:10	84.5	84.5	87.3	56	67.0	1	3	90	0.00	29.929 
17:15	84.3	84.3	87.2	57	67.4	1	4	90	0.00	29.925 
17:20	84.0	84.0	86.7	57	67.1	1	3	112	0.00	29.925 
17:25	84.0	84.0	87.0	58	67.6	0	1	112	0.00	29.925 
17:30	84.0	84.0	87.3	59	68.1	2	4	90	0.00	29.924 
17:35	84.1	84.1	87.4	59	68.2	2	6	90	0.00	29.924 
17:40	84.3	84.3	87.8	59	68.4	1	4	90	0.00	29.924 
17:45	84.5	84.5	87.5	57	67.6	1	3	90	0.00	29.920 
17:50	84.3	84.3	87.0	56	66.9	2	5	90	0.00	29.920 
17:55	83.8	83.8	87.2	60	68.4	1	3	90	0.00	29.920 
18:00	83.6	83.6	86.6	59	67.7	1	3	90	0.00	29.917 
18:05	83.6	83.6	86.4	58	67.2	2	6	90	0.00	29.917 
18:10	83.6	83.6	85.9	56	66.2	1	4	112	0.00	29.917 
18:15	83.8	83.8	87.5	61	68.9	1	4	112	0.00	29.918 
18:20	83.8	83.8	86.7	58	67.4	0	2	68	0.00	29.918 
18:25	83.6	83.6	86.4	58	67.2	1	3	68	0.00	29.918 
18:30	83.6	83.6	86.4	58	67.2	1	4	90	0.00	29.915 
18:35	83.6	83.6	86.4	58	67.2	2	4	90	0.00	29.915 
18:40	83.6	83.6	86.1	57	66.7	1	3	90	0.00	29.915 
18:45	83.6	83.6	86.4	58	67.2	1	2	90	0.00	29.907 
18:50	83.6	83.6	86.4	58	67.2	0	2	90	0.00	29.907 
18:55	83.4	83.4	85.8	57	66.5	0	1	90	0.00	29.907 
19:00	83.2	83.2	85.3	56	65.8	1	2	90	0.00	29.905 
19:05	83.2	83.2	86.0	59	67.4	0	1	90	0.00	29.905 
19:10	83.0	83.0	85.7	59	67.2	1	3	90	0.00	29.905 
19:15	82.6	82.6	84.9	58	66.3	1	3	90	0.00	29.904 
19:20	82.6	82.6	85.1	59	66.8	0	2	90	0.00	29.904 
19:25	82.4	82.4	84.8	59	66.6	0	1	90	0.00	29.904 
19:30	82.2	82.2	84.3	58	65.9	0	1	90	0.00	29.903 
19:35	82.2	82.2	84.5	59	66.4	0	0	---	0.00	29.903 
19:40	82.0	82.0	84.4	60	66.7	0	1	90	0.00	29.903 
19:45	82.0	82.0	84.1	58	65.7	1	3	90	0.00	29.905 
19:50	82.2	82.2	84.5	59	66.4	0	2	90	0.00	29.905 
19:55	82.4	82.4	84.6	58	66.1	0	2	90	0.00	29.905 
20:00	82.4	82.4	84.6	58	66.1	1	3	90	0.00	29.905 
20:05	82.2	82.2	84.5	59	66.4	1	3	90	0.00	29.905 
20:10	82.2	82.2	84.7	60	66.9	1	4	90	0.00	29.905 
20:15	82.2	82.2	85.1	62	67.9	1	3	90	0.00	29.901 
20:20	82.0	82.0	85.0	63	68.1	2	4	90	0.00	29.901 
20:25	81.8	81.8	84.5	62	67.5	2	5	90	0.00	29.901 
20:30	81.6	81.6	84.6	64	68.2	1	3	90	0.00	29.900 
20:35	81.2	81.2	84.1	65	68.3	1	2	90	0.00	29.900 
20:40	81.1	81.1	84.1	66	68.6	2	5	90	0.00	29.900 
20:45	80.7	80.7	83.8	68	69.1	1	2	90	0.00	29.898 
20:50	80.5	80.5	83.5	68	68.9	1	3	112	0.00	29.898 
20:55	80.1	80.1	83.0	69	69.0	1	3	112	0.00	29.898 
21:00	79.8	79.8	82.6	70	69.1	1	3	112	0.00	29.907 
21:05	79.6	79.6	82.3	70	68.9	0	1	112	0.00	29.907 
21:10	79.2	79.2	81.8	71	69.0	1	2	90	0.00	29.907 
21:15	79.0	79.0	81.5	71	68.8	1	2	90	0.00	29.902 
21:20	78.8	78.8	81.3	72	69.0	1	3	90	0.00	29.902 
21:25	78.5	78.5	80.9	73	69.1	0	2	90	0.00	29.902 
21:30	78.3	78.3	80.6	73	68.9	1	3	90	0.00	29.903 
21:35	77.9	77.9	80.0	74	68.9	0	1	90	0.00	29.903 
21:40	77.7	77.7	79.7	74	68.7	0	1	90	0.00	29.903 
21:45	77.4	77.4	79.3	75	68.8	0	1	90	0.00	29.913 
21:50	77.2	77.2	79.0	75	68.6	0	2	90	0.00	29.913 
21:55	77.0	77.0	78.7	75	68.5	0	1	90	0.00	29.913 
22:00	76.8	76.8	78.4	76	68.6	0	1	90	0.00	29.917 
22:05	76.7	76.7	78.2	76	68.5	0	0	---	0.00	29.917 
22:10	76.3	76.3	77.6	77	68.5	0	1	90	0.00	29.917 
22:15	76.3	76.3	77.6	77	68.5	0	2	90	0.00	29.918 
22:20	76.1	76.1	77.4	77	68.3	0	0	---	0.00	29.918 
22:25	76.0	76.0	77.2	78	68.6	0	1	90	0.00	29.918 
22:30	76.0	76.0	77.2	78	68.6	1	2	90	0.00	29.924 
22:35	75.8	75.8	76.9	78	68.4	1	2	90	0.00	29.924 
22:40	75.6	75.6	76.6	78	68.2	1	2	90	0.00	29.924 
22:45	75.6	75.6	76.6	78	68.2	1	2	90	0.00	29.922 
22:50	75.4	75.4	76.3	78	68.0	2	4	90	0.00	29.922 
22:55	75.4	75.4	76.3	78	68.0	2	4	90	0.00	29.922 
23:00	75.4	75.4	76.3	78	68.0	2	4	90	0.00	29.920 
23:05	75.3	75.3	76.2	78	68.0	1	2	90	0.00	29.920 
23:10	75.3	75.3	76.2	78	68.0	1	4	90	0.00	29.920 
23:15	75.1	75.1	76.0	78	67.8	1	4	90	0.00	29.920 
23:20	74.9	74.9	74.9	78	67.6	1	4	90	0.00	29.920 
23:25	74.9	74.9	74.9	78	67.6	1	2	90	0.00	29.920 
23:30	74.7	74.7	74.7	78	67.4	0	2	90	0.00	29.919 
23:35	74.6	74.6	74.6	78	67.3	2	4	90	0.00	29.919 
23:40	74.4	74.4	74.4	78	67.1	1	3	90	0.00	29.919 
23:45	74.2	74.2	74.2	78	66.9	1	3	90	0.00	29.922 
23:50	74.0	74.0	74.0	78	66.7	1	3	90	0.00	29.922 
23:55	73.9	73.9	73.9	79	67.0	1	2	90	0.00	29.922 

CoCoRaHS
IN-AL-39
A2 Web Hosting
Creative Commons License
GoDaddy
Look for:

loaded 2017-10-17 00:20:16 • last modified 2010-11-18 10:43:29
Privacy PolicyDisclaimer
• wx.awcolley.com is powered by PmWiki v.2002016 •
• all content (unless otherwise noted) © 2017 A W Colley